Portada
METAR-TAF:

METAR-TAF

Aeropuertos :

Dakar, Senegal

Aeropuerto Internacional de Dakar-Yoff/Léopold Sédar Senghor

latitud: 14-44N, longitud: 017-30W, altitud: 27 m

Observación

El informe se hizo hace 40 minutos, a las 23:00 UTC
Viento 4 kt del norte-noroeste
Temperatura 28°C
Humedad 89%
Presión 1014 hPa
Visibilidad 10 km o más
sin nubes por debajo de 1500 m y sin presencia de cumulonimbus.

METAR: GOOY 202300Z 33004KT CAVOK 28/26 Q1014 NOSIG

Hora: 23:40 (23:40 UTC)

Pronóstico

El informe se hizo hace 10 minutos, a las 23:30 UTC
Pronóstico válido del 21 a las 00 UTC al 22 a las 06 UTC
Viento 8 kt del norte-noroeste
Visibilidad: 8000 m

TAF: GOOY 202330Z 2100/2206 33008KT 8000 NSC

Observaciones y pronósticos meteorológicos de más de 4000 aeropuertos (mensajes METAR y TAF).

Los puntos amarillos y rojos representan las estaciones disponibles.

Ponga el ratón en el punto deseado para ver el nombre de la estación.

Haga clic para ver las observaciones y los pronósticos meteorológicos.

Para cambiar el mapa : haga clic en los botones verdes con una cruz de color negro para hacer un zoom, en el botón verde con un guión para alejar o en las flechas verdes para mapas adyacentes.


METAR-TAF: